createdAt,value
2023-04-01T00:00:39.703Z,3.94
2023-04-01T00:03:08.270Z,3.92
2023-04-01T00:05:36.528Z,3.91
2023-04-01T00:08:04.724Z,3.91
2023-04-01T00:10:32.758Z,3.93
2023-04-01T00:13:02.742Z,3.92
2023-04-01T00:15:31.155Z,3.91
2023-04-01T00:18:02.044Z,3.88
2023-04-01T00:20:30.312Z,3.87
2023-04-01T00:22:58.592Z,3.86
2023-04-01T00:25:26.952Z,3.83
2023-04-01T00:27:55.099Z,3.81
2023-04-01T00:30:23.231Z,3.77
2023-04-01T00:32:53.634Z,3.76
2023-04-01T00:35:23.478Z,3.71
2023-04-01T00:37:51.996Z,3.72
2023-04-01T00:40:28.158Z,3.72
2023-04-01T00:42:56.626Z,3.68
2023-04-01T00:45:30.560Z,3.69
2023-04-01T00:48:01.215Z,3.68
2023-04-01T00:50:31.695Z,3.70
2023-04-01T00:53:00.718Z,3.75
2023-04-01T00:55:30.110Z,3.72
2023-04-01T00:57:59.392Z,3.73
2023-04-01T01:00:27.787Z,3.73
2023-04-01T01:02:55.933Z,3.75
2023-04-01T01:05:29.381Z,3.74
2023-04-01T01:08:05.416Z,3.72
2023-04-01T01:10:35.019Z,3.71
2023-04-01T01:13:07.435Z,3.74
2023-04-01T01:15:38.582Z,3.70
2023-04-01T01:18:11.645Z,3.71
2023-04-01T01:20:50.691Z,3.70
2023-04-01T01:23:45.838Z,3.71
2023-04-01T01:26:27.511Z,3.73
2023-04-01T01:29:03.987Z,3.71
2023-04-01T01:31:36.373Z,3.67
2023-04-01T01:34:12.797Z,3.63
2023-04-01T01:36:43.681Z,3.62
2023-04-01T01:39:12.230Z,3.60
2023-04-01T01:41:42.172Z,3.59
2023-04-01T01:44:12.775Z,3.58
2023-04-01T01:46:42.130Z,3.57
2023-04-01T01:49:11.652Z,3.56
2023-04-01T01:51:40.300Z,3.56
2023-04-01T01:54:15.616Z,3.58
2023-04-01T01:56:45.581Z,3.59
2023-04-01T01:59:14.942Z,3.60
2023-04-01T02:01:45.405Z,3.60
2023-04-01T02:04:16.262Z,3.61
2023-04-01T02:06:48.857Z,3.64
2023-04-01T02:09:19.153Z,3.62
2023-04-01T02:11:49.853Z,3.60
2023-04-01T02:14:19.856Z,3.62
2023-04-01T02:16:52.098Z,3.60
2023-04-01T02:19:23.773Z,3.60
2023-04-01T02:21:56.299Z,3.59
2023-04-01T02:24:28.393Z,3.60
2023-04-01T02:26:56.416Z,3.65
2023-04-01T02:29:26.147Z,3.66
2023-04-01T02:31:55.854Z,3.67
2023-04-01T02:34:25.239Z,3.64
2023-04-01T02:36:54.454Z,3.62
2023-04-01T02:39:22.732Z,3.61
2023-04-01T02:41:52.099Z,3.60
2023-04-01T02:44:20.603Z,3.58
2023-04-01T02:46:48.795Z,3.58
2023-04-01T02:49:16.875Z,3.55
2023-04-01T02:51:44.916Z,3.55
2023-04-01T02:54:13.173Z,3.55
2023-04-01T02:56:41.706Z,3.56
2023-04-01T02:59:11.233Z,3.57
2023-04-01T03:01:39.364Z,3.58
2023-04-01T03:04:07.604Z,3.58
2023-04-01T03:06:35.860Z,3.58
2023-04-01T03:09:04.482Z,3.56
2023-04-01T03:11:32.549Z,3.52
2023-04-01T03:14:00.617Z,3.50
2023-04-01T03:16:30.627Z,3.51
2023-04-01T03:19:00.816Z,3.50
2023-04-01T03:21:29.178Z,3.49
2023-04-01T03:23:57.349Z,3.51
2023-04-01T03:26:25.432Z,3.48
2023-04-01T03:28:53.525Z,3.48
2023-04-01T03:31:23.643Z,3.46
2023-04-01T03:33:56.966Z,3.47
2023-04-01T03:36:25.189Z,3.46
2023-04-01T03:38:53.401Z,3.48
2023-04-01T03:41:28.867Z,3.47
2023-04-01T03:43:57.005Z,3.51
2023-04-01T03:46:25.299Z,3.53
2023-04-01T03:48:53.548Z,3.54
2023-04-01T03:51:22.992Z,3.51
2023-04-01T03:53:51.388Z,3.52
2023-04-01T03:56:19.460Z,3.51
2023-04-01T03:58:47.758Z,3.54
2023-04-01T04:01:16.524Z,3.56
2023-04-01T04:03:45.396Z,3.56
2023-04-01T04:06:14.763Z,3.59
2023-04-01T04:08:44.376Z,3.58
2023-04-01T04:11:13.307Z,3.60
2023-04-01T04:13:43.915Z,3.60
2023-04-01T04:16:13.717Z,3.62
2023-04-01T04:18:46.768Z,3.62
2023-04-01T04:21:15.010Z,3.62
2023-04-01T04:23:45.218Z,3.66
2023-04-01T04:26:16.781Z,3.68
2023-04-01T04:28:49.789Z,3.65
2023-04-01T04:31:20.830Z,3.65
2023-04-01T04:33:49.055Z,3.66
2023-04-01T04:36:18.110Z,3.65
2023-04-01T04:38:48.165Z,3.63
2023-04-01T04:41:17.940Z,3.67
2023-04-01T04:43:53.753Z,3.66
2023-04-01T04:46:22.351Z,3.67
2023-04-01T04:48:54.675Z,3.66
2023-04-01T04:51:23.386Z,3.69
2023-04-01T04:53:53.403Z,3.69
2023-04-01T04:56:29.132Z,3.68
2023-04-01T04:59:09.201Z,3.71
2023-04-01T05:01:46.913Z,3.73
2023-04-01T05:04:17.216Z,3.75
2023-04-01T05:06:45.940Z,3.77
2023-04-01T05:09:15.653Z,3.79
2023-04-01T05:11:43.895Z,3.83
2023-04-01T05:14:14.609Z,3.85
2023-04-01T05:16:44.095Z,3.89
2023-04-01T05:19:12.178Z,3.87
2023-04-01T05:21:40.402Z,3.91
2023-04-01T05:24:09.894Z,3.95
2023-04-01T05:26:39.921Z,3.96
2023-04-01T05:29:08.026Z,4.00
2023-04-01T05:31:36.621Z,4.02
2023-04-01T05:34:06.203Z,4.02
2023-04-01T05:36:35.391Z,4.11
2023-04-01T05:39:04.412Z,4.10
2023-04-01T05:41:32.704Z,4.11
2023-04-01T05:44:02.334Z,4.15
2023-04-01T05:46:50.673Z,4.14
2023-04-01T05:49:24.252Z,4.16
2023-04-01T05:51:53.418Z,4.21
2023-04-01T05:54:21.569Z,4.28
2023-04-01T05:56:50.048Z,4.34
2023-04-01T05:59:20.405Z,4.41
2023-04-01T06:01:48.508Z,4.47
2023-04-01T06:04:17.797Z,4.52
2023-04-01T06:06:47.067Z,4.57
2023-04-01T06:09:16.495Z,4.62
2023-04-01T06:12:03.309Z,4.67
2023-04-01T06:14:40.387Z,4.74
2023-04-01T06:17:18.774Z,4.82
2023-04-01T06:19:50.504Z,4.90
2023-04-01T06:22:37.390Z,4.96
2023-04-01T06:25:31.951Z,5.01
2023-04-01T06:28:16.788Z,5.02
2023-04-01T06:30:50.078Z,5.06
2023-04-01T06:33:32.703Z,5.07
2023-04-01T06:36:08.899Z,5.10
2023-04-01T06:38:55.009Z,5.14
2023-04-01T06:41:30.772Z,5.20
2023-04-01T06:44:03.103Z,5.21
2023-04-01T06:46:57.293Z,5.23
2023-04-01T06:49:58.051Z,5.21
2023-04-01T06:52:52.423Z,5.16
2023-04-01T06:55:48.474Z,5.16
2023-04-01T06:58:44.379Z,5.18
2023-04-01T07:01:16.503Z,5.13
2023-04-01T07:03:50.029Z,5.13
2023-04-01T07:06:22.306Z,5.13
2023-04-01T07:08:57.887Z,5.11
2023-04-01T07:11:30.793Z,5.11
2023-04-01T07:14:22.138Z,5.19
2023-04-01T07:16:51.769Z,5.22
2023-04-01T07:19:24.324Z,5.31
2023-04-01T07:22:06.342Z,5.39
2023-04-01T07:24:54.318Z,5.49
2023-04-01T07:27:22.825Z,5.59
2023-04-01T07:29:51.387Z,5.64
2023-04-01T07:32:22.515Z,5.71
2023-04-01T07:35:09.009Z,5.79
2023-04-01T07:37:41.515Z,5.90
2023-04-01T07:40:16.845Z,6.02
2023-04-01T07:42:51.794Z,6.14
2023-04-01T07:45:25.194Z,6.26
2023-04-01T07:48:02.932Z,6.50
2023-04-01T07:50:34.908Z,6.73
2023-04-01T07:53:08.900Z,6.83
2023-04-01T07:55:41.073Z,6.92
2023-04-01T07:58:12.882Z,7.06
2023-04-01T08:00:46.955Z,7.12
2023-04-01T08:03:33.911Z,7.14
2023-04-01T08:06:09.670Z,7.18
2023-04-01T08:08:42.390Z,7.28
2023-04-01T08:11:34.967Z,7.39
2023-04-01T08:14:48.804Z,7.51
2023-04-01T08:17:19.816Z,7.67
2023-04-01T08:19:58.656Z,7.78
2023-04-01T08:22:35.145Z,7.81
2023-04-01T08:25:08.903Z,7.96
2023-04-01T08:27:39.452Z,8.06
2023-04-01T08:30:17.916Z,8.37
2023-04-01T08:32:50.193Z,8.71
2023-04-01T08:35:21.487Z,9.11
2023-04-01T08:37:55.199Z,9.71
2023-04-01T08:40:53.464Z,10.43
2023-04-01T08:43:27.822Z,10.79
2023-04-01T08:46:03.630Z,10.91
2023-04-01T08:48:44.221Z,11.09
2023-04-01T08:51:32.662Z,11.32
2023-04-01T08:54:22.187Z,11.45
2023-04-01T08:56:55.832Z,11.72
2023-04-01T08:59:32.296Z,11.77
2023-04-01T09:02:30.111Z,12.05
2023-04-01T09:05:35.146Z,12.60
2023-04-01T09:08:10.473Z,12.92
2023-04-01T09:10:49.651Z,13.32
2023-04-01T09:14:04.819Z,14.09
2023-04-01T09:16:53.902Z,14.79
2023-04-01T09:19:27.926Z,15.48
2023-04-01T09:22:09.868Z,16.04
2023-04-01T09:24:44.672Z,16.42
2023-04-01T09:27:21.130Z,16.90
2023-04-01T09:30:01.150Z,17.05
2023-04-01T09:32:42.778Z,17.38
2023-04-01T09:35:23.561Z,17.36
2023-04-01T09:38:02.903Z,17.56
2023-04-01T09:40:38.585Z,17.34
2023-04-01T09:43:19.159Z,17.24
2023-04-01T09:45:54.773Z,17.02
2023-04-01T09:48:46.199Z,16.83
2023-04-01T09:51:21.120Z,16.77
2023-04-01T09:53:54.830Z,16.06
2023-04-01T09:56:45.626Z,15.82
2023-04-01T09:59:31.775Z,15.84
2023-04-01T10:02:36.084Z,15.89
2023-04-01T10:05:30.275Z,15.91
2023-04-01T10:08:17.936Z,15.49
2023-04-01T10:10:57.125Z,15.01
2023-04-01T10:13:39.247Z,15.17
2023-04-01T10:16:25.400Z,15.35
2023-04-01T10:19:12.218Z,15.41
2023-04-01T10:21:59.260Z,16.14
2023-04-01T10:24:43.721Z,16.50
2023-04-01T10:27:31.420Z,17.07
2023-04-01T10:30:31.141Z,17.80
2023-04-01T10:33:26.794Z,18.41
2023-04-01T10:36:09.831Z,18.95
2023-04-01T10:38:57.594Z,19.78
2023-04-01T10:41:39.521Z,20.52
2023-04-01T10:44:47.938Z,21.31
2023-04-01T10:47:43.739Z,21.71
2023-04-01T10:50:29.793Z,22.50
2023-04-01T10:53:29.722Z,23.25
2023-04-01T10:56:40.964Z,23.50
2023-04-01T10:59:56.284Z,23.92
2023-04-01T11:03:02.055Z,24.65
2023-04-01T11:06:21.470Z,24.87
2023-04-01T11:09:13.249Z,24.11
2023-04-01T11:11:59.842Z,24.38
2023-04-01T11:14:40.818Z,24.40
2023-04-01T11:17:29.583Z,23.69
2023-04-01T11:20:11.345Z,23.46
2023-04-01T11:22:48.643Z,23.01
2023-04-01T11:25:24.521Z,22.34
2023-04-01T11:28:33.622Z,22.42
2023-04-01T11:31:10.176Z,22.76
2023-04-01T11:33:40.176Z,22.36
2023-04-01T11:36:19.017Z,21.63
2023-04-01T11:38:59.290Z,20.94
2023-04-01T11:41:48.377Z,20.18
2023-04-01T11:44:42.247Z,19.45
2023-04-01T11:47:40.760Z,18.52
2023-04-01T11:50:23.298Z,18.26
2023-04-01T11:53:08.334Z,17.47
2023-04-01T11:55:41.977Z,16.75
2023-04-01T11:58:20.542Z,16.33
2023-04-01T12:01:07.402Z,16.08
2023-04-01T12:03:50.493Z,15.51
2023-04-01T12:06:26.345Z,15.33
2023-04-01T12:08:59.550Z,14.88
2023-04-01T12:11:33.109Z,14.57
2023-04-01T12:14:06.571Z,14.29
2023-04-01T12:16:43.889Z,14.03
2023-04-01T12:19:17.402Z,13.66
2023-04-01T12:21:53.151Z,13.50
2023-04-01T12:24:44.089Z,13.39
2023-04-01T12:27:22.190Z,13.48
2023-04-01T12:29:55.925Z,13.41
2023-04-01T12:32:28.484Z,13.23
2023-04-01T12:35:15.712Z,13.04
2023-04-01T12:37:49.731Z,12.73
2023-04-01T12:40:36.050Z,12.55
2023-04-01T12:43:21.924Z,12.50
2023-04-01T12:45:55.359Z,12.31
2023-04-01T12:48:42.089Z,12.30
2023-04-01T12:51:37.793Z,12.15
2023-04-01T12:54:18.390Z,11.95
2023-04-01T12:56:52.443Z,11.69
2023-04-01T12:59:38.272Z,11.57
2023-04-01T13:02:14.915Z,11.53
2023-04-01T13:04:57.812Z,11.38
2023-04-01T13:07:39.191Z,11.32
2023-04-01T13:10:15.748Z,11.24
2023-04-01T13:12:56.342Z,11.10
2023-04-01T13:15:27.739Z,11.01
2023-04-01T13:17:59.801Z,10.94
2023-04-01T13:20:38.212Z,10.77
2023-04-01T13:23:12.379Z,10.49
2023-04-01T13:25:46.940Z,10.28
2023-04-01T13:28:18.153Z,10.22
2023-04-01T13:30:50.221Z,10.19
2023-04-01T13:33:28.610Z,10.03
2023-04-01T13:36:01.152Z,9.99
2023-04-01T13:38:40.137Z,9.95
2023-04-01T13:41:15.869Z,9.89
2023-04-01T13:43:47.778Z,9.85
2023-04-01T13:46:28.961Z,9.80
2023-04-01T13:49:11.900Z,9.81
2023-04-01T13:51:54.730Z,9.80
2023-04-01T13:54:49.723Z,9.78
2023-04-01T13:57:26.255Z,9.82
2023-04-01T14:00:08.591Z,9.77
2023-04-01T14:02:52.589Z,9.73
2023-04-01T14:05:43.316Z,9.69
2023-04-01T14:08:19.433Z,9.62
2023-04-01T14:10:52.247Z,9.55
2023-04-01T14:13:25.493Z,9.53
2023-04-01T14:16:04.448Z,9.61
2023-04-01T14:18:39.720Z,9.64
2023-04-01T14:21:20.661Z,9.63
2023-04-01T14:23:58.302Z,9.59
2023-04-01T14:26:37.758Z,9.61
2023-04-01T14:29:14.731Z,9.65
2023-04-01T14:31:49.272Z,9.56
2023-04-01T14:34:24.004Z,9.49
2023-04-01T14:36:58.492Z,9.46
2023-04-01T14:39:36.285Z,9.39
2023-04-01T14:42:18.965Z,9.49
2023-04-01T14:44:57.697Z,9.43
2023-04-01T14:47:42.018Z,9.42
2023-04-01T14:50:14.592Z,9.42
2023-04-01T14:52:44.519Z,9.39
2023-04-01T14:55:23.307Z,9.24
2023-04-01T14:58:00.927Z,9.23
2023-04-01T15:00:42.036Z,9.26
2023-04-01T15:03:15.768Z,9.16
2023-04-01T15:05:50.162Z,9.06
2023-04-01T15:08:20.763Z,9.03
2023-04-01T15:11:00.409Z,9.03
2023-04-01T15:13:43.388Z,9.03
2023-04-01T15:16:20.799Z,8.97
2023-04-01T15:18:55.086Z,9.02
2023-04-01T15:21:30.356Z,9.02
2023-04-01T15:24:08.727Z,9.04
2023-04-01T15:26:51.680Z,8.99
2023-04-01T15:29:27.839Z,8.87
2023-04-01T15:32:02.843Z,8.86
2023-04-01T15:34:34.463Z,8.83
2023-04-01T15:37:05.261Z,8.85
2023-04-01T15:39:40.904Z,8.90
2023-04-01T15:42:26.271Z,8.91
2023-04-01T15:45:01.664Z,8.90
2023-04-01T15:47:45.161Z,8.90
2023-04-01T15:50:37.382Z,8.91
2023-04-01T15:53:30.046Z,8.89
2023-04-01T15:55:59.765Z,8.80
2023-04-01T15:58:46.600Z,8.78
2023-04-01T16:01:20.812Z,8.81
2023-04-01T16:03:54.785Z,8.84
